Terminal Aerodrome Forecast
Issued by NWS

Home | Current Version | Previous Version | Text Only | Print | Product List | Glossary On
Versions: 1 2 3 4 5 6 7 8 9 10 11 12
841
FTUS43 KPAH 052320
TAFCGI
TAF
KCGI 052320Z 0600/0624 36010KT P6SM BKN050
     FM060200 VRB03KT P6SM SCT050
     FM061400 32006KT P6SM SKC
     FM062000 32006KT P6SM BKN100=

USA.gov is the U.S. government's official web portal to all federal, state and local government web resources and services.